Empire, Colorado
Current Conditions -  °F | °C
As of 9:10 AM on Tuesday 21 Oct 2014 (Local Time) from K0CO Reporting Station
Broken Clouds Broken Clouds  
Wind Chill: 24°   Ceiling: 2800
Heat Index: 32°   Visibility: 10mi
Dew Point: 30°   Wind: 9mph
Humidity: 93%   Direction: 290°WNW
Pressure: 30.43"   Gusts: NA
Location:  39.76°N, 105.68°W
Report Text: K0CO 211510Z AUTO 29008KT 10SM BKN028 00/M01 A3043 RMK AO2 LTG DSNT W
Loading
Personal Weather Stations






























Interactive Weather Map New forecast layout! Learn more

10-Day Weather Forecast

Advertisements
Track Severe Weather on mobile